Time;durP1;ratioP1;P1;durP2;ratioP2;P2;SDS_P1;SDS_P2;PMS_P1;PMS_P2;Temp;Humidity;BMP_temperature;BMP_pressure;BME280_temperature;BME280_humidity;BME280_pressure;Samples;Min_cycle;Max_cycle;Signal;HPM_P1;HPM_P2
2022/06/07 00:00:44;;;;;;;7.50;4.28;;;17.10;78.30;;;;;;5034137;28;20513;-85
2022/06/07 00:03:11;;;;;;;5.75;3.88;;;17.10;78.50;;;;;;5034892;28;20033;-84
2022/06/07 00:05:40;;;;;;;7.03;3.88;;;17.10;78.20;;;;;;5002151;28;20031;-84
2022/06/07 00:08:07;;;;;;;5.53;3.88;;;17.10;78.20;;;;;;4989604;28;20038;-84
2022/06/07 00:10:33;;;;;;;5.18;3.90;;;17.10;78.30;;;;;;5000865;28;20516;-87
2022/06/07 00:12:59;;;;;;;5.80;4.30;;;17.10;78.50;;;;;;4973727;28;20459;-88
2022/06/07 00:15:25;;;;;;;7.65;4.60;;;17.10;78.50;;;;;;4973794;28;20036;-88
2022/06/07 00:17:52;;;;;;;8.35;4.68;;;17.00;78.00;;;;;;5036825;28;20374;-83
2022/06/07 00:20:18;;;;;;;4.97;4.15;;;17.00;78.20;;;;;;5014656;28;20493;-84
2022/06/07 00:22:44;;;;;;;8.02;4.47;;;17.10;78.20;;;;;;5033616;28;20038;-84
2022/06/07 00:25:13;;;;;;;6.05;3.83;;;17.00;77.70;;;;;;5004744;28;20521;-84
2022/06/07 00:27:39;;;;;;;7.18;3.80;;;17.00;78.00;;;;;;5017372;28;20085;-85
2022/06/07 00:30:07;;;;;;;6.30;4.07;;;17.10;77.90;;;;;;5005644;28;20514;-87
2022/06/07 00:32:34;;;;;;;5.57;4.10;;;17.00;78.20;;;;;;5022097;28;20038;-86
2022/06/07 00:35:00;;;;;;;3.90;3.28;;;17.10;77.50;;;;;;5005421;28;20046;-86
2022/06/07 00:37:25;;;;;;;5.35;3.83;;;17.10;77.60;;;;;;5010168;28;20116;-90
2022/06/07 00:39:51;;;;;;;5.03;3.47;;;17.00;77.70;;;;;;5015288;28;20049;-90
2022/06/07 00:42:17;;;;;;;5.97;3.45;;;17.00;77.70;;;;;;4996222;28;20129;-86
2022/06/07 00:44:46;;;;;;;4.72;3.90;;;17.00;77.70;;;;;;5035650;28;20129;-87
2022/06/07 00:47:12;;;;;;;6.75;4.20;;;17.00;77.70;;;;;;5000928;28;20030;-85
2022/06/07 00:50:08;;;;;;;4.97;3.65;;;16.90;77.50;;;;;;5034542;28;20041;-86
2022/06/07 00:52:36;;;;;;;6.20;3.83;;;16.90;77.40;;;;;;5004456;28;20037;-87
2022/06/07 00:55:04;;;;;;;5.13;3.42;;;16.90;77.40;;;;;;5000145;28;20033;-87
2022/06/07 00:57:38;;;;;;;3.95;3.40;;;16.90;77.80;;;;;;5005036;28;20077;-86
2022/06/07 01:00:14;;;;;;;4.18;3.60;;;16.80;77.80;;;;;;5002972;28;20390;-84
2022/06/07 01:02:40;;;;;;;6.15;4.18;;;16.80;77.80;;;;;;5005289;28;20037;-83
2022/06/07 01:05:08;;;;;;;3.92;3.35;;;16.70;77.60;;;;;;5005036;28;20046;-84
2022/06/07 01:13:07;;;;;;;4.82;3.50;;;16.70;77.40;;;;;;5017692;28;20109;-84
2022/06/07 01:15:33;;;;;;;6.05;3.47;;;16.70;77.30;;;;;;5004998;28;20076;-84
2022/06/07 01:18:02;;;;;;;5.25;3.20;;;16.60;77.20;;;;;;5000486;28;20145;-84
2022/06/07 01:20:30;;;;;;;4.65;3.20;;;16.60;77.10;;;;;;5005036;28;20389;-85
2022/06/07 01:22:57;;;;;;;3.35;3.03;;;16.70;77.20;;;;;;5021158;28;20033;-84
2022/06/07 01:25:24;;;;;;;5.13;3.03;;;16.70;77.10;;;;;;4989835;28;20541;-85
2022/06/07 01:27:52;;;;;;;4.50;3.08;;;16.80;76.90;;;;;;5019987;28;20092;-84
2022/06/07 01:30:18;;;;;;;5.72;3.03;;;16.80;76.60;;;;;;5005577;28;20037;-85
2022/06/07 01:32:44;;;;;;;3.45;3.13;;;16.90;76.50;;;;;;5011320;28;20081;-85
2022/06/07 01:35:10;;;;;;;5.22;3.33;;;17.00;77.00;;;;;;5034147;28;20121;-85
2022/06/07 01:37:36;;;;;;;9.45;3.60;;;17.00;76.60;;;;;;4989354;28;20034;-83
2022/06/07 01:42:49;;;;;;;5.47;2.90;;;17.00;75.40;;;;;;5035063;28;20044;-84
2022/06/07 01:45:15;;;;;;;5.10;3.33;;;16.90;75.30;;;;;;4989957;28;20038;-81
2022/06/07 01:47:41;;;;;;;6.13;3.08;;;16.80;75.60;;;;;;5037163;28;20041;-82
2022/06/07 01:50:08;;;;;;;8.30;3.20;;;16.80;75.60;;;;;;5036719;28;20099;-81
2022/06/07 01:52:36;;;;;;;6.95;2.90;;;16.80;75.60;;;;;;5024757;28;20570;-85
2022/06/07 01:55:09;;;;;;;7.22;3.08;;;16.80;75.60;;;;;;5007812;28;20064;-85
2022/06/07 01:57:44;;;;;;;3.28;2.97;;;16.70;75.90;;;;;;5024393;28;20044;-84
2022/06/07 02:00:14;;;;;;;3.15;2.72;;;16.70;75.70;;;;;;5028749;28;20033;-85
2022/06/07 02:02:41;;;;;;;4.45;2.75;;;16.70;75.80;;;;;;5025879;28;20041;-84
2022/06/07 02:05:08;;;;;;;4.50;2.65;;;16.70;76.40;;;;;;5051584;28;20033;-84
2022/06/07 02:07:36;;;;;;;4.07;3.10;;;16.70;76.10;;;;;;5007317;28;20125;-85
2022/06/07 02:10:07;;;;;;;5.28;3.15;;;16.70;76.10;;;;;;5005872;28;20103;-84
2022/06/07 02:12:34;;;;;;;3.10;2.80;;;16.70;76.10;;;;;;5008449;28;20033;-87
2022/06/07 02:15:00;;;;;;;3.20;2.58;;;16.70;75.90;;;;;;5020406;28;20076;-86
2022/06/07 02:17:27;;;;;;;4.30;2.53;;;16.90;75.80;;;;;;5023009;28;20110;-87
2022/06/07 02:20:13;;;;;;;3.38;2.42;;;17.00;75.70;;;;;;5013935;28;20029;-84
2022/06/07 02:22:39;;;;;;;4.60;2.40;;;17.20;75.20;;;;;;5045084;28;20128;-83
2022/06/07 02:25:06;;;;;;;2.78;2.58;;;17.40;75.00;;;;;;5011579;28;20037;-84
2022/06/07 02:27:32;;;;;;;4.63;2.65;;;17.50;74.70;;;;;;5023971;28;20075;-85
2022/06/07 02:29:58;;;;;;;2.60;2.30;;;17.70;74.20;;;;;;5045623;28;20065;-83
2022/06/07 02:32:29;;;;;;;3.90;2.40;;;17.80;73.60;;;;;;5041018;28;20694;-83
2022/06/07 02:34:57;;;;;;;7.13;2.50;;;18.00;73.30;;;;;;5027438;28;21030;-83
2022/06/07 02:37:25;;;;;;;6.22;2.60;;;18.10;72.90;;;;;;5007795;28;20528;-84
2022/06/07 02:39:52;;;;;;;3.65;2.30;;;18.20;72.70;;;;;;5026757;28;20037;-84
2022/06/07 02:42:22;;;;;;;4.93;2.38;;;18.40;72.40;;;;;;5055829;28;20083;-83
2022/06/07 02:44:47;;;;;;;2.92;2.20;;;18.50;71.70;;;;;;5011427;28;21109;-83
2022/06/07 02:47:13;;;;;;;3.08;2.05;;;18.70;71.30;;;;;;5024700;28;20037;-83
2022/06/07 02:49:43;;;;;;;2.35;2.15;;;18.80;70.80;;;;;;5022820;28;20041;-83
2022/06/07 02:52:10;;;;;;;3.00;2.03;;;18.90;70.70;;;;;;5028760;28;20036;-84
2022/06/07 02:54:42;;;;;;;3.03;2.22;;;19.00;70.00;;;;;;5020325;28;20155;-83
2022/06/07 02:57:10;;;;;;;2.15;1.90;;;19.20;70.10;;;;;;5019364;28;20025;-83
2022/06/07 02:59:37;;;;;;;6.00;2.05;;;19.30;69.90;;;;;;5027098;28;20420;-82
2022/06/07 03:02:05;;;;;;;3.40;2.08;;;19.40;69.00;;;;;;5058497;28;20098;-82
2022/06/07 03:04:33;;;;;;;4.07;2.03;;;19.50;68.90;;;;;;5044221;28;20045;-82
2022/06/07 03:07:04;;;;;;;3.75;2.03;;;19.50;67.90;;;;;;5020179;28;20052;-83
2022/06/07 03:09:32;;;;;;;5.30;2.00;;;19.40;67.20;;;;;;5011244;28;20040;-85
2022/06/07 03:12:00;;;;;;;2.95;1.92;;;19.30;67.40;;;;;;5011285;28;20388;-84
2022/06/07 03:14:27;;;;;;;5.05;1.70;;;19.20;67.40;;;;;;5010584;28;20026;-84
2022/06/07 03:16:53;;;;;;;3.85;1.92;;;19.10;67.30;;;;;;5039074;28;20527;-89
2022/06/07 03:19:19;;;;;;;4.22;2.13;;;19.10;67.40;;;;;;5043267;28;20082;-86
2022/06/07 03:21:45;;;;;;;2.13;1.77;;;19.20;67.40;;;;;;5026869;28;20387;-87
2022/06/07 03:24:11;;;;;;;2.33;1.70;;;19.30;66.80;;;;;;5010455;28;20033;-86
2022/06/07 03:26:37;;;;;;;4.43;1.80;;;19.40;66.90;;;;;;5023121;28;20053;-84
2022/06/07 03:29:08;;;;;;;3.40;1.40;;;19.60;66.90;;;;;;5023678;28;20033;-85
2022/06/07 03:31:34;;;;;;;2.88;1.80;;;19.80;66.50;;;;;;5042236;28;20041;-85
2022/06/07 03:34:04;;;;;;;2.45;1.70;;;20.00;66.60;;;;;;5043467;28;20033;-84
2022/06/07 03:36:37;;;;;;;3.63;2.10;;;20.10;66.80;;;;;;5021287;28;20057;-82
2022/06/07 03:39:09;;;;;;;1.77;1.63;;;20.30;66.20;;;;;;5024084;28;20034;-82
2022/06/07 03:41:40;;;;;;;2.30;1.50;;;20.40;66.80;;;;;;5022972;28;20403;-83
2022/06/07 03:44:17;;;;;;;4.03;1.48;;;20.60;66.90;;;;;;5022739;28;20061;-83
2022/06/07 03:46:49;;;;;;;2.40;1.38;;;20.70;66.80;;;;;;5005958;28;20026;-82
2022/06/07 03:49:18;;;;;;;1.95;1.38;;;20.90;66.90;;;;;;5025446;28;20160;-91
2022/06/07 03:51:47;;;;;;;2.97;1.52;;;21.00;66.60;;;;;;5037265;28;20100;-81
2022/06/07 03:54:15;;;;;;;1.58;1.38;;;21.10;65.40;;;;;;5057213;28;20030;-80
2022/06/07 03:56:44;;;;;;;3.45;1.30;;;21.20;66.10;;;;;;4992195;28;20090;-82
2022/06/07 03:59:10;;;;;;;1.20;0.98;;;21.30;66.20;;;;;;5008427;28;20044;-83
2022/06/07 04:01:37;;;;;;;5.30;1.35;;;21.40;66.30;;;;;;5005449;28;20056;-84
2022/06/07 04:04:06;;;;;;;1.30;1.17;;;21.60;66.20;;;;;;5030549;28;20033;-82
2022/06/07 04:06:38;;;;;;;2.55;1.10;;;21.70;65.30;;;;;;5011656;28;20044;-82
2022/06/07 04:09:12;;;;;;;3.15;1.35;;;21.80;65.60;;;;;;5024805;28;20037;-82
2022/06/07 04:11:43;;;;;;;2.30;1.13;;;21.90;65.50;;;;;;5025384;28;20171;-81
2022/06/07 04:14:09;;;;;;;3.78;0.90;;;22.10;65.60;;;;;;5007410;28;20037;-85
2022/06/07 04:16:36;;;;;;;2.63;1.27;;;22.10;65.40;;;;;;5026466;28;20964;-84
2022/06/07 04:19:09;;;;;;;1.67;1.30;;;22.30;65.40;;;;;;5017363;28;20124;-83
2022/06/07 04:21:36;;;;;;;2.15;1.10;;;22.30;65.10;;;;;;5007987;28;20119;-81
2022/06/07 04:24:27;;;;;;;3.05;1.05;;;22.50;64.80;;;;;;5026085;28;20073;-81
2022/06/07 04:26:53;;;;;;;1.45;1.13;;;22.60;64.90;;;;;;5011906;28;20080;-81
2022/06/07 04:29:20;;;;;;;1.17;0.90;;;22.70;64.70;;;;;;5026633;28;20033;-80
2022/06/07 04:31:47;;;;;;;2.55;1.00;;;22.80;64.40;;;;;;5024119;28;20129;-83
2022/06/07 04:34:18;;;;;;;2.25;1.05;;;23.00;65.10;;;;;;4993608;28;20025;-80
2022/06/07 04:36:45;;;;;;;1.88;1.15;;;23.10;64.20;;;;;;5037907;28;20520;-83
2022/06/07 04:39:15;;;;;;;2.22;0.80;;;23.20;63.90;;;;;;5025064;28;20598;-81
2022/06/07 04:41:49;;;;;;;1.85;0.65;;;23.30;63.60;;;;;;5053938;28;20049;-83
2022/06/07 04:44:20;;;;;;;1.98;0.80;;;23.40;63.60;;;;;;5024320;28;20034;-81
2022/06/07 04:46:49;;;;;;;3.15;0.80;;;23.50;63.50;;;;;;5020051;28;20113;-77
2022/06/07 04:49:15;;;;;;;0.85;0.70;;;23.60;63.30;;;;;;5003373;28;20087;-77
2022/06/07 04:51:42;;;;;;;2.13;0.85;;;23.70;63.10;;;;;;5035616;28;20041;-76
2022/06/07 04:54:12;;;;;;;3.42;1.45;;;23.80;63.00;;;;;;5020812;28;20116;-77
2022/06/07 04:56:42;;;;;;;2.25;0.90;;;23.90;62.60;;;;;;5052186;28;20452;-77
2022/06/07 04:59:10;;;;;;;2.40;0.65;;;24.10;62.30;;;;;;5018407;28;20087;-77
2022/06/07 05:01:43;;;;;;;1.35;0.93;;;24.10;62.30;;;;;;5022998;28;20080;-76
2022/06/07 05:04:16;;;;;;;2.42;1.00;;;24.30;61.70;;;;;;5024494;28;20548;-77
2022/06/07 05:06:44;;;;;;;2.83;0.77;;;24.40;60.20;;;;;;5019387;28;20038;-77
2022/06/07 05:09:24;;;;;;;2.22;1.00;;;24.50;60.40;;;;;;5021303;28;20147;-81
2022/06/07 05:11:55;;;;;;;2.42;1.00;;;24.60;60.00;;;;;;5053629;28;20152;-81
2022/06/07 05:14:24;;;;;;;4.97;1.23;;;24.60;55.70;;;;;;5004077;28;20034;-81
2022/06/07 05:16:51;;;;;;;4.45;0.90;;;24.70;54.10;;;;;;5023856;28;20087;-81
2022/06/07 05:19:23;;;;;;;2.95;0.77;;;24.80;53.30;;;;;;5024985;28;20033;-81
2022/06/07 05:21:57;;;;;;;3.10;1.40;;;24.90;52.80;;;;;;5018883;28;20030;-81
2022/06/07 05:24:23;;;;;;;3.88;0.88;;;24.80;50.70;;;;;;5022800;28;20034;-82
2022/06/07 05:26:52;;;;;;;6.50;1.20;;;24.70;50.90;;;;;;5020324;28;20099;-81
2022/06/07 05:29:52;;;;;;;2.60;0.90;;;24.80;50.20;;;;;;5053629;28;20370;-81
2022/06/07 05:32:54;;;;;;;6.43;1.27;;;24.90;50.70;;;;;;4999667;28;20398;-82
2022/06/07 05:35:43;;;;;;;4.80;1.00;;;25.10;52.00;;;;;;5017411;28;20046;-82
2022/06/07 05:38:14;;;;;;;3.30;1.20;;;25.00;49.40;;;;;;5007816;28;20030;-82
2022/06/07 05:40:44;;;;;;;2.78;0.88;;;24.90;48.30;;;;;;5024102;28;20465;-82
2022/06/07 05:43:14;;;;;;;8.18;1.10;;;25.00;47.60;;;;;;5020099;28;20060;-81
2022/06/07 05:45:48;;;;;;;5.35;1.35;;;25.20;48.50;;;;;;4991620;28;20144;-83
2022/06/07 05:48:19;;;;;;;4.82;1.30;;;25.20;47.60;;;;;;5023614;28;20033;-84
2022/06/07 05:50:50;;;;;;;2.95;1.35;;;25.40;49.10;;;;;;5005125;28;20496;-81
2022/06/07 05:53:19;;;;;;;3.78;1.20;;;25.50;49.20;;;;;;5042293;28;20034;-80
2022/06/07 05:55:45;;;;;;;3.53;0.80;;;25.80;48.60;;;;;;5011858;28;20033;-80
2022/06/07 05:58:12;;;;;;;2.05;1.00;;;26.00;47.70;;;;;;5027575;28;20246;-81
2022/06/07 06:00:39;;;;;;;2.10;1.02;;;26.10;48.40;;;;;;5026976;28;20079;-80
2022/06/07 06:03:06;;;;;;;3.72;0.75;;;26.10;47.50;;;;;;4996552;28;20080;-81
2022/06/07 06:05:47;;;;;;;2.83;0.85;;;26.10;46.20;;;;;;5027706;28;20539;-80
2022/06/07 06:11:15;;;;;;;3.00;0.77;;;26.00;44.20;;;;;;5004321;28;20482;-82
2022/06/07 06:13:48;;;;;;;3.30;0.95;;;25.90;44.10;;;;;;5008088;28;20026;-82
2022/06/07 06:16:18;;;;;;;1.35;0.90;;;25.90;45.30;;;;;;5024856;28;20080;-81
2022/06/07 06:18:52;;;;;;;3.53;0.63;;;25.90;44.00;;;;;;4995544;28;20045;-80
2022/06/07 06:21:23;;;;;;;3.20;0.63;;;25.90;44.00;;;;;;5018640;28;20481;-81
2022/06/07 06:23:49;;;;;;;1.85;0.60;;;25.80;43.70;;;;;;5011267;28;20037;-80
2022/06/07 06:26:18;;;;;;;0.80;0.80;;;26.00;45.10;;;;;;5025497;28;20045;-80
2022/06/07 06:28:45;;;;;;;1.98;0.70;;;25.90;45.10;;;;;;5022479;28;20057;-80
2022/06/07 06:31:13;;;;;;;1.55;1.10;;;26.00;42.60;;;;;;5009420;28;20038;-80
2022/06/07 06:33:50;;;;;;;1.83;0.70;;;25.90;44.50;;;;;;5039347;28;20056;-82
2022/06/07 06:36:23;;;;;;;0.75;0.50;;;25.90;43.90;;;;;;5010070;28;20041;-81
2022/06/07 06:38:51;;;;;;;1.38;0.60;;;25.80;42.70;;;;;;5011963;28;20029;-82
2022/06/07 06:41:25;;;;;;;4.10;0.80;;;25.90;44.60;;;;;;5007213;28;20068;-81
2022/06/07 06:43:54;;;;;;;4.45;0.82;;;25.90;44.70;;;;;;5012384;28;20141;-80
2022/06/07 06:46:33;;;;;;;2.05;0.60;;;25.90;43.60;;;;;;5010802;28;20397;-83
2022/06/07 06:49:03;;;;;;;6.57;0.88;;;25.90;42.30;;;;;;5024545;28;20036;-80
2022/06/07 06:51:29;;;;;;;2.00;0.70;;;26.00;44.90;;;;;;5025766;28;20037;-81
2022/06/07 06:53:58;;;;;;;1.70;0.68;;;25.90;44.10;;;;;;4994588;28;20079;-82
2022/06/07 06:56:40;;;;;;;2.03;0.95;;;25.80;43.10;;;;;;5021796;28;20501;-83
2022/06/07 06:59:16;;;;;;;6.20;0.80;;;26.00;43.60;;;;;;5010557;28;20033;-82
2022/06/07 07:01:45;;;;;;;3.72;0.65;;;26.00;44.20;;;;;;5009601;28;20033;-82
2022/06/07 07:04:17;;;;;;;3.92;0.70;;;25.80;42.60;;;;;;5009002;28;20466;-80
2022/06/07 07:06:48;;;;;;;1.98;0.43;;;25.80;44.10;;;;;;5037587;28;20560;-82
2022/06/07 07:09:17;;;;;;;2.95;0.70;;;25.90;44.70;;;;;;4994634;28;20033;-81
2022/06/07 07:11:48;;;;;;;0.63;0.50;;;25.80;46.30;;;;;;4989449;28;20078;-82
2022/06/07 07:14:20;;;;;;;2.63;0.70;;;25.80;45.10;;;;;;4984962;28;20034;-81
2022/06/07 07:16:49;;;;;;;1.42;0.65;;;25.80;45.30;;;;;;4989738;28;20038;-82
2022/06/07 07:19:17;;;;;;;0.98;0.57;;;25.80;44.80;;;;;;5000245;28;20117;-82
2022/06/07 07:21:46;;;;;;;1.52;1.13;;;25.70;45.20;;;;;;5006401;28;20030;-80
2022/06/07 07:24:16;;;;;;;3.45;0.57;;;25.70;43.30;;;;;;4989539;28;20030;-80
2022/06/07 07:26:48;;;;;;;3.90;0.40;;;25.80;41.50;;;;;;5004778;28;20042;-80
2022/06/07 07:29:18;;;;;;;0.98;0.40;;;25.80;42.50;;;;;;4989150;28;20034;-80
2022/06/07 07:31:45;;;;;;;4.85;0.52;;;25.60;43.00;;;;;;4997895;28;20100;-79
2022/06/07 07:34:17;;;;;;;2.22;0.45;;;25.50;41.80;;;;;;4991546;28;21058;-81
2022/06/07 07:36:46;;;;;;;1.65;0.40;;;25.40;41.40;;;;;;4990410;28;20038;-80
2022/06/07 07:39:13;;;;;;;1.13;0.50;;;25.40;40.70;;;;;;5034965;28;20104;-78
2022/06/07 07:41:41;;;;;;;2.67;0.60;;;25.40;37.90;;;;;;5000922;28;20056;-79
2022/06/07 07:44:12;;;;;;;6.45;1.05;;;25.20;38.80;;;;;;5017141;28;20600;-81
2022/06/07 07:46:41;;;;;;;3.17;0.80;;;25.20;42.60;;;;;;5002431;28;20072;-80
2022/06/07 07:49:08;;;;;;;3.80;0.60;;;25.10;41.80;;;;;;4988283;28;20524;-79
2022/06/07 07:51:38;;;;;;;2.13;0.60;;;24.90;41.60;;;;;;5002702;28;20038;-80
2022/06/07 07:54:08;;;;;;;5.70;0.70;;;24.90;40.80;;;;;;5001540;28;20030;-79
2022/06/07 07:56:35;;;;;;;5.53;0.90;;;24.80;41.60;;;;;;5014981;28;20097;-79
2022/06/07 07:59:05;;;;;;;1.92;0.40;;;25.00;44.10;;;;;;4998688;28;20034;-81
2022/06/07 08:01:31;;;;;;;3.38;0.55;;;24.90;43.50;;;;;;4972780;28;20116;-82
2022/06/07 08:04:00;;;;;;;4.93;0.80;;;25.00;45.30;;;;;;5017468;28;20030;-82
2022/06/07 08:06:36;;;;;;;1.95;0.73;;;24.90;45.20;;;;;;5000520;28;20030;-81
2022/06/07 08:09:05;;;;;;;3.40;0.55;;;25.00;45.70;;;;;;5034761;28;20042;-83
2022/06/07 08:11:34;;;;;;;1.73;0.70;;;24.80;42.50;;;;;;5000149;28;20037;-81
2022/06/07 08:14:02;;;;;;;2.95;0.50;;;24.70;41.00;;;;;;5016616;28;20104;-81
2022/06/07 08:16:28;;;;;;;1.77;0.90;;;24.60;37.80;;;;;;4997908;28;20025;-82
2022/06/07 08:18:55;;;;;;;3.55;1.00;;;24.50;40.20;;;;;;5013381;28;20034;-79
2022/06/07 08:21:26;;;;;;;3.40;0.77;;;24.50;45.20;;;;;;5000965;28;20042;-88
2022/06/07 08:23:55;;;;;;;2.67;1.00;;;24.60;47.70;;;;;;5006166;28;20033;-81
2022/06/07 08:26:23;;;;;;;3.08;1.02;;;24.70;47.70;;;;;;5004309;28;20046;-79
2022/06/07 08:28:49;;;;;;;5.05;1.20;;;24.70;49.40;;;;;;5002334;28;20523;-79
2022/06/07 08:31:19;;;;;;;2.78;0.88;;;24.70;48.20;;;;;;5000158;28;20034;-79
2022/06/07 08:39:14;;;;;;;5.60;0.82;;;24.50;45.50;;;;;;5034931;28;19916;-83
2022/06/07 08:42:12;;;;;;;4.75;0.85;;;24.50;47.50;;;;;;5003862;28;20034;-81
2022/06/07 08:45:05;;;;;;;3.88;0.55;;;24.50;45.20;;;;;;5000531;28;20053;-81
2022/06/07 08:47:37;;;;;;;4.53;0.80;;;24.40;44.50;;;;;;4995575;28;20501;-82
2022/06/07 08:50:21;;;;;;;1.92;0.70;;;24.50;46.30;;;;;;5000311;28;20121;-81
2022/06/07 08:52:51;;;;;;;2.55;1.00;;;24.30;45.00;;;;;;5000644;28;20037;-80
2022/06/07 08:55:26;;;;;;;5.22;0.60;;;24.40;46.00;;;;;;4979948;28;20034;-80
2022/06/07 08:57:58;;;;;;;2.35;0.80;;;24.20;43.10;;;;;;4985750;28;20166;-81
2022/06/07 09:00:31;;;;;;;3.25;0.80;;;24.20;42.80;;;;;;4967190;28;20547;-80
2022/06/07 09:03:25;;;;;;;1.60;0.77;;;24.10;44.20;;;;;;4995461;28;20442;-80
2022/06/07 09:05:53;;;;;;;4.57;1.05;;;24.00;42.70;;;;;;4982576;28;20044;-79
2022/06/07 09:08:19;;;;;;;1.35;0.70;;;24.00;45.20;;;;;;4985631;28;20038;-81
2022/06/07 09:13:34;;;;;;;4.28;1.00;;;24.00;45.00;;;;;;4980956;28;20844;-81
2022/06/07 09:16:01;;;;;;;2.40;0.70;;;24.10;45.80;;;;;;5010701;28;20038;-80
2022/06/07 09:18:30;;;;;;;2.20;0.90;;;24.00;44.00;;;;;;4997041;28;20033;-80
2022/06/07 09:21:06;;;;;;;3.22;0.73;;;24.00;44.70;;;;;;5010631;28;20421;-80
2022/06/07 09:23:46;;;;;;;2.00;0.90;;;23.90;43.90;;;;;;5021303;28;20041;-81
2022/06/07 09:26:12;;;;;;;0.82;0.52;;;23.90;44.20;;;;;;5018560;28;20045;-81
2022/06/07 09:28:38;;;;;;;1.05;0.60;;;23.90;44.40;;;;;;5020587;28;20042;-79
2022/06/07 09:31:15;;;;;;;1.45;0.90;;;23.90;44.10;;;;;;5017434;28;20046;-80
2022/06/07 09:34:02;;;;;;;1.52;0.63;;;23.90;44.30;;;;;;5023593;28;20072;-80
2022/06/07 09:36:38;;;;;;;2.53;0.60;;;23.90;44.30;;;;;;5019845;28;20026;-80
2022/06/07 09:39:24;;;;;;;2.00;0.70;;;23.80;43.80;;;;;;5020512;28;20030;-80
2022/06/07 09:41:58;;;;;;;1.70;0.68;;;23.60;41.60;;;;;;5006904;28;20049;-81
2022/06/07 09:44:35;;;;;;;3.70;1.13;;;23.50;40.90;;;;;;5019514;28;20034;-79
2022/06/07 09:47:04;;;;;;;5.97;1.25;;;23.30;41.50;;;;;;5018707;28;20029;-80
2022/06/07 09:49:32;;;;;;;3.08;0.88;;;23.10;40.80;;;;;;5022026;28;20413;-79
2022/06/07 09:52:21;;;;;;;1.50;0.70;;;23.20;43.50;;;;;;5019850;28;20061;-80
2022/06/07 09:54:51;;;;;;;1.60;0.60;;;23.20;43.10;;;;;;5032860;28;20037;-79
2022/06/07 09:57:29;;;;;;;4.38;0.73;;;23.20;42.70;;;;;;5019543;28;20036;-80
2022/06/07 10:00:09;;;;;;;1.23;0.60;;;23.20;43.80;;;;;;5018319;28;20034;-80
2022/06/07 10:02:58;;;;;;;1.75;0.65;;;23.20;43.20;;;;;;5003470;28;20033;-80
2022/06/07 10:05:39;;;;;;;0.65;0.50;;;23.30;44.20;;;;;;5020556;28;20083;-80
2022/06/07 10:08:11;;;;;;;1.95;0.80;;;23.30;44.50;;;;;;5021067;28;20520;-80
2022/06/07 10:10:46;;;;;;;2.08;0.60;;;23.20;42.70;;;;;;5022743;28;20044;-79
2022/06/07 10:13:35;;;;;;;3.53;0.70;;;23.20;43.60;;;;;;5019882;28;20123;-80
2022/06/07 10:16:07;;;;;;;1.30;0.77;;;23.20;43.50;;;;;;5035313;28;20479;-80
2022/06/07 10:19:10;;;;;;;5.30;0.80;;;23.00;40.90;;;;;;5006034;28;20037;-78
2022/06/07 10:22:21;;;;;;;6.32;1.13;;;23.00;44.40;;;;;;5034810;28;20038;-81
2022/06/07 10:25:06;;;;;;;8.10;0.95;;;23.00;46.30;;;;;;5022776;28;20128;-85
2022/06/07 10:27:51;;;;;;;2.47;0.57;;;23.10;45.70;;;;;;5015069;28;20061;-85
2022/06/07 10:30:30;;;;;;;2.42;0.68;;;23.00;42.70;;;;;;5019846;28;20041;-82
2022/06/07 10:33:13;;;;;;;1.65;0.65;;;22.80;43.00;;;;;;5026194;28;20084;-83
2022/06/07 10:36:02;;;;;;;3.22;0.90;;;22.90;44.00;;;;;;5024380;28;20036;-82
2022/06/07 10:38:58;;;;;;;2.75;0.95;;;22.80;43.90;;;;;;5036864;28;20116;-83
2022/06/07 10:41:51;;;;;;;5.90;0.85;;;22.80;43.50;;;;;;5011578;28;20030;-83
2022/06/07 10:44:33;;;;;;;5.75;0.93;;;22.80;42.90;;;;;;5009722;28;20037;-84
2022/06/07 10:47:11;;;;;;;2.67;0.40;;;22.80;43.60;;;;;;5027190;28;20034;-83
2022/06/07 10:49:51;;;;;;;5.47;0.88;;;22.80;43.30;;;;;;5038838;28;20052;-83
2022/06/07 10:52:41;;;;;;;3.03;0.55;;;22.80;45.10;;;;;;5023970;28;20516;-80
2022/06/07 10:55:10;;;;;;;5.07;1.13;;;22.70;44.80;;;;;;5013083;28;20048;-80
2022/06/07 10:58:20;;;;;;;4.35;0.80;;;22.60;43.30;;;;;;5022012;28;20042;-81
2022/06/07 11:00:55;;;;;;;3.05;0.80;;;22.60;44.00;;;;;;4975937;28;20035;-83
2022/06/07 11:03:32;;;;;;;2.58;0.80;;;22.60;43.90;;;;;;4960266;28;20049;-81
2022/06/07 11:09:21;;;;;;;5.20;0.85;;;22.60;44.60;;;;;;4962797;28;20548;-86
2022/06/07 11:12:06;;;;;;;1.70;0.80;;;22.70;45.30;;;;;;4944308;28;20584;-87
2022/06/07 11:14:41;;;;;;;0.95;0.50;;;22.60;43.80;;;;;;4945158;28;20696;-82
2022/06/07 11:17:21;;;;;;;1.80;0.50;;;22.40;41.50;;;;;;4976754;28;20034;-81
2022/06/07 11:19:48;;;;;;;6.07;0.75;;;22.40;42.70;;;;;;4958986;28;20031;-81
2022/06/07 11:22:18;;;;;;;2.80;0.70;;;22.40;43.40;;;;;;4958969;28;20472;-81
2022/06/07 11:25:25;;;;;;;2.25;0.77;;;22.40;44.70;;;;;;4976488;28;20042;-81
2022/06/07 11:27:58;;;;;;;2.75;0.50;;;22.60;43.60;;;;;;4890270;29;20071;-80
2022/06/07 11:30:39;;;;;;;1.23;0.63;;;22.50;43.00;;;;;;4904752;29;20595;-84
2022/06/07 11:33:28;;;;;;;0.80;0.50;;;22.50;43.10;;;;;;4884091;29;20623;-84
2022/06/07 11:36:12;;;;;;;1.23;0.63;;;22.50;42.00;;;;;;4902724;29;20527;-85
2022/06/07 11:38:53;;;;;;;3.22;0.93;;;22.40;40.80;;;;;;4947955;28;20101;-84
2022/06/07 11:41:37;;;;;;;2.80;0.80;;;22.40;41.80;;;;;;4965005;28;20562;-85
2022/06/07 11:44:11;;;;;;;1.80;0.80;;;22.40;42.70;;;;;;4955384;28;20039;-80
2022/06/07 11:46:45;;;;;;;2.35;0.50;;;22.40;42.60;;;;;;4954547;28;20063;-80
2022/06/07 11:49:23;;;;;;;1.30;0.50;;;22.20;39.90;;;;;;4936557;29;20032;-80
2022/06/07 11:52:02;;;;;;;1.73;0.60;;;22.20;41.30;;;;;;4965653;28;20485;-82
2022/06/07 11:54:51;;;;;;;2.45;0.50;;;22.20;43.20;;;;;;4945936;28;20517;-81
2022/06/07 11:57:20;;;;;;;1.20;0.60;;;22.30;43.30;;;;;;4946527;29;20059;-81
2022/06/07 11:59:53;;;;;;;1.85;0.40;;;22.30;42.50;;;;;;5029987;28;20432;-82
2022/06/07 12:02:33;;;;;;;0.73;0.50;;;22.30;42.20;;;;;;5032010;28;20572;-82
2022/06/07 12:05:06;;;;;;;2.63;0.52;;;22.30;40.70;;;;;;5001156;28;20068;-82
2022/06/07 12:07:35;;;;;;;2.58;0.52;;;22.20;40.60;;;;;;5033763;28;20037;-82
2022/06/07 12:10:16;;;;;;;1.77;0.65;;;22.20;41.60;;;;;;5003974;28;20553;-84
2022/06/07 12:12:51;;;;;;;1.20;0.80;;;22.20;41.30;;;;;;5005528;28;20034;-83
2022/06/07 12:15:22;;;;;;;3.95;0.40;;;22.20;41.10;;;;;;5002020;28;20038;-82
2022/06/07 12:17:56;;;;;;;3.97;0.50;;;22.10;40.60;;;;;;5008284;28;20033;-93
2022/06/07 12:20:43;;;;;;;2.85;0.50;;;22.10;41.30;;;;;;5004156;28;20041;-81
2022/06/07 12:23:29;;;;;;;3.65;0.60;;;22.10;40.10;;;;;;5020130;28;20037;-83
2022/06/07 12:26:00;;;;;;;;;;;22.00;39.40;;;;;;5022387;28;20045;-80
2022/06/07 12:28:30;;;;;;;1.25;0.77;;;21.90;39.80;;;;;;5007971;28;20352;-81
2022/06/07 12:30:57;;;;;;;2.03;0.60;;;21.90;39.40;;;;;;5019738;28;20680;-82
2022/06/07 12:33:32;;;;;;;8.05;1.00;;;22.00;40.20;;;;;;5020590;28;20129;-81
2022/06/07 12:36:19;;;;;;;1.57;0.70;;;22.00;40.70;;;;;;5005836;28;20030;-81
2022/06/07 12:38:48;;;;;;;3.58;0.57;;;22.00;39.70;;;;;;5005665;28;20053;-81
2022/06/07 12:41:17;;;;;;;0.88;0.55;;;22.00;39.80;;;;;;5000177;28;20042;-81
2022/06/07 12:43:52;;;;;;;1.65;0.63;;;22.00;40.50;;;;;;5019462;28;20084;-81
2022/06/07 12:46:27;;;;;;;2.10;0.80;;;22.00;39.40;;;;;;4998291;28;20041;-79
2022/06/07 12:48:53;;;;;;;;;;;22.00;39.20;;;;;;5006084;28;20958;-81
2022/06/07 12:51:34;;;;;;;0.98;0.55;;;21.90;39.90;;;;;;4984794;28;19959;-81
2022/06/07 12:54:15;;;;;;;2.13;0.70;;;21.90;41.10;;;;;;5002788;28;20966;-81
2022/06/07 12:56:44;;;;;;;2.53;0.50;;;21.90;41.80;;;;;;4999302;28;20666;-80
2022/06/07 12:59:38;;;;;;;1.67;0.77;;;21.90;42.50;;;;;;5004966;28;20042;-83
2022/06/07 13:02:25;;;;;;;3.00;0.80;;;21.90;42.70;;;;;;5001255;28;20033;-82
2022/06/07 13:04:55;;;;;;;1.23;0.70;;;22.00;42.90;;;;;;5021609;28;20464;-81
2022/06/07 13:07:25;;;;;;;1.35;0.40;;;21.90;41.40;;;;;;5019203;28;20085;-81
2022/06/07 13:09:57;;;;;;;1.13;0.47;;;21.90;40.90;;;;;;5031911;28;20084;-84
2022/06/07 13:12:26;;;;;;;5.05;0.50;;;22.00;39.90;;;;;;5002552;28;20130;-81
2022/06/07 13:14:52;;;;;;;1.20;0.60;;;22.00;40.40;;;;;;4989709;28;20160;-82
2022/06/07 13:17:40;;;;;;;1.58;0.80;;;21.90;41.10;;;;;;4983204;28;20121;-82
2022/06/07 13:20:22;;;;;;;5.85;0.88;;;21.90;42.50;;;;;;5019590;28;20088;-81
2022/06/07 13:22:48;;;;;;;1.02;0.60;;;21.90;42.30;;;;;;5014226;28;20038;-81
2022/06/07 13:25:14;;;;;;;1.85;0.60;;;21.90;42.00;;;;;;5032742;28;20095;-80
2022/06/07 13:27:51;;;;;;;2.05;0.75;;;22.00;42.50;;;;;;5002023;28;20128;-80
2022/06/07 13:30:24;;;;;;;1.42;0.63;;;22.00;43.00;;;;;;4988373;28;20069;-81
2022/06/07 13:33:03;;;;;;;1.48;0.75;;;22.00;44.10;;;;;;5042278;28;20046;-81
2022/06/07 13:35:41;;;;;;;0.93;0.60;;;22.00;42.50;;;;;;5036997;28;20077;-81
2022/06/07 13:38:26;;;;;;;3.33;0.80;;;22.00;42.30;;;;;;5020059;28;20408;-81